Ratcliff, Arkansas
Current Conditions -  °F | °C
As of 6:53 AM on Tuesday 21 Oct 2014 (Local Time) from KFSM Reporting Station
Haze Haze  
Wind Chill: 57°   Ceiling: Unl
Heat Index: 57°   Visibility: 5mi
Dew Point: 55°   Wind: 5mph
Humidity: 93%   Direction: 160°SSE
Pressure: 30.08"   Gusts: NA
Location:  35.31°N, 93.88°W
Report Text: KFSM 211153Z 16004KT 5SM BR SCT039 14/13 A3008 RMK AO2 SLP184 T01390128 10156 20133 53006
Loading
Personal Weather Stations






























Interactive Weather Map
Tropical Storm Tracking
New forecast layout! Learn more

10-Day Weather Forecast

Advertisements
Track Severe Weather on mobile